Grete Maersk — OYCY2 — position and weather

sailwx.info

Track history (hours):
 
Tides and Currents Weather Stations Pressure Air Temp Water Temp Dewpoint Dewpoint Depression Visibility Wind Speed Wind Dir Waves Ship Positions

Grete Maersk

Last reported at 2016-Aug-19 06:31 UTC. Time now 2016-Aug-31 14:19 UTC.
Position N 38°20' W 127°05'.
Warning: this ship's position is 12 days out of date.

MMSI: 218824136.

Date/timePositionNaut miles runAvg speedWind from/ knotsBaromVisibWave heightAir tempDewpointWater temp
2016-Aug-19 06:31N 38°20' W 127°05'8814.7
2016-Aug-19 00:33N 38°15' W 125°13'1514.7
2016-Aug-18 23:32N 38°15' W 124°54'1414.4
2016-Aug-18 22:33N 38°14' W 124°36'1414.3
2016-Aug-18 21:33N 38°13' W 124°18'1414.4
2016-Aug-18 20:34N 38°12' W 124°00'1514.8
2016-Aug-18 19:33N 38°11' W 123°41'1413.9
2016-Aug-18 18:33N 38°10' W 123°24'9 9.1
2016-Aug-18 17:33N 38°04' W 123°15'10 9.5
2016-Aug-18 16:33N 37°58' W 123°06'10 9.6
2016-Aug-18 15:33N 37°53' W 122°55'10 9.8
2016-Aug-18 14:33N 37°48' W 122°45'1111.1
2016-Aug-18 13:33N 37°49' W 122°31'9 9.1
2016-Aug-18 12:33N 37°48' W 122°19'0 0.4
2016-Aug-18 11:31N 37°48' W 122°19'0 0.0
2016-Aug-18 10:31N 37°48' W 122°19'0 0.0
2016-Aug-18 09:31N 37°48' W 122°19'0 0.0
2016-Aug-18 08:28N 37°48' W 122°19'0 0.0
2016-Aug-18 07:31N 37°48' W 122°19'0 0.0
2016-Aug-18 06:31N 37°48' W 122°19'0 0.0
2016-Aug-18 05:31N 37°48' W 122°19'0 0.0
2016-Aug-18 04:31N 37°48' W 122°19'0 0.0
2016-Aug-18 03:31N 37°48' W 122°19'0 0.0
2016-Aug-18 02:31N 37°48' W 122°19'0 0.0
2016-Aug-18 01:31N 37°48' W 122°19'0 0.0
2016-Aug-18 00:31N 37°48' W 122°19'0 0.0
2016-Aug-17 23:31N 37°48' W 122°19'0 0.0
2016-Aug-17 22:31N 37°48' W 122°19'1 1.1
2016-Aug-17 21:33N 37°48' W 122°17'4 3.8
2016-Aug-17 20:33N 37°47' W 122°22'1 1.3
2016-Aug-17 19:32N 37°46' W 122°21'0 0.0
2016-Aug-17 18:32N 37°46' W 122°21'0 0.0
2016-Aug-17 17:32N 37°46' W 122°21'0 0.0
2016-Aug-17 16:32N 37°46' W 122°21'0 0.0
2016-Aug-17 15:32N 37°46' W 122°21'0 0.1
2016-Aug-17 14:32N 37°46' W 122°21'0 0.3
2016-Aug-17 13:32N 37°46' W 122°21'0 0.0
2016-Aug-17 12:29N 37°46' W 122°22'0 0.0
2016-Aug-17 11:32N 37°46' W 122°22'0 0.0
2016-Aug-17 10:32N 37°46' W 122°22'0 0.0
2016-Aug-17 09:32N 37°46' W 122°22'0 0.0
2016-Aug-17 08:32N 37°46' W 122°21'0 0.2
2016-Aug-17 07:33N 37°46' W 122°21'0 0.3
2016-Aug-17 06:32N 37°46' W 122°21'0 0.0
2016-Aug-17 05:32N 37°46' W 122°21'0 0.0
2016-Aug-17 04:29N 37°46' W 122°21'0 0.0
2016-Aug-17 03:32N 37°46' W 122°21'0 0.1
2016-Aug-17 02:32N 37°46' W 122°21'0 0.3
2016-Aug-17 01:33N 37°46' W 122°21'8 7.5
2016-Aug-17 00:33N 37°48' W 122°31'10 9.6
2016-Aug-16 23:33N 37°42' W 122°40'10 9.6
2016-Aug-16 22:33N 37°32' W 122°40'10 9.6
2016-Aug-16 21:33N 37°23' W 122°40'8 7.7
2016-Aug-16 20:33N 37°15' W 122°39'0 0.1
2016-Aug-16 19:33N 37°15' W 122°39'2 1.8
2016-Aug-16 18:33N 37°13' W 122°39'1010.0
2016-Aug-16 17:33N 37°04' W 122°35'1515.3
2016-Aug-16 16:33N 36°50' W 122°28'1515.3
2016-Aug-16 15:33N 36°35' W 122°21'1615.5
2016-Aug-16 14:33N 36°21' W 122°13'6015.1
2016-Aug-16 10:33N 35°25' W 121°45'1514.9
2016-Aug-16 09:33N 35°11' W 121°37'1614.9
2016-Aug-16 08:28N 34°57' W 121°28'1112.4
2016-Aug-16 07:33N 34°49' W 121°19'5 1.6
2016-Aug-16 04:11N 34°51' W 121°25'1 1.6
2016-Aug-16 03:24N 34°51' W 121°26'1 1.0
2016-Aug-16 02:33N 34°50' W 121°26'3 2.6
2016-Aug-16 01:33N 34°47' W 121°26'1614.1
2016-Aug-16 00:25N 34°36' W 121°12'1314.5
2016-Aug-15 23:33N 34°30' W 120°59'4513.9
2016-Aug-15 20:19N 34°16' W 120°07'1114.5
2016-Aug-15 19:33N 34°13' W 119°54'1414.5
2016-Aug-15 18:33N 34°09' W 119°37'1514.6
2016-Aug-15 17:33N 34°06' W 119°20'1514.7
2016-Aug-15 16:33N 33°59' W 119°04'1514.6
2016-Aug-15 15:33N 33°52' W 118°49'1212.1
2016-Aug-15 14:33N 33°46' W 118°36'1111.2
2016-Aug-15 13:33N 33°40' W 118°24'9 9.1
2016-Aug-15 12:33N 33°39' W 118°13'6 6.0
2016-Aug-15 11:33N 33°45' W 118°14'0 0.4
2016-Aug-15 10:33N 33°45' W 118°14'0 0.0
2016-Aug-15 09:33N 33°45' W 118°14'0 0.0
2016-Aug-15 08:33N 33°45' W 118°14'0 0.0
2016-Aug-15 07:33N 33°45' W 118°14'0 0.0
2016-Aug-15 06:33N 33°45' W 118°14'0 0.0
2016-Aug-15 04:33N 33°45' W 118°14'0 0.0
2016-Aug-15 03:33N 33°45' W 118°14'0 0.0
2016-Aug-15 02:33N 33°45' W 118°14'0 0.0
2016-Aug-15 01:33N 33°45' W 118°14'0 0.0
2016-Aug-15 00:33N 33°45' W 118°14'0 0.0
2016-Aug-14 23:33N 33°45' W 118°14'0 0.0
2016-Aug-14 22:33N 33°45' W 118°14'0 0.0
2016-Aug-14 21:33N 33°45' W 118°14'0 0.0
2016-Aug-14 20:33N 33°45' W 118°14'0 0.0
2016-Aug-14 19:30N 33°45' W 118°14'0 0.0
2016-Aug-14 18:33N 33°45' W 118°14'0 0.0
2016-Aug-14 17:33N 33°45' W 118°14'0 0.0
2016-Aug-14 16:33N 33°45' W 118°14'0 0.0
2016-Aug-14 15:32N 33°45' W 118°14'0 0.0
2016-Aug-14 14:32N 33°45' W 118°14'0 0.0
2016-Aug-14 13:32N 33°45' W 118°14'0 0.0
2016-Aug-14 12:32N 33°45' W 118°14'0 0.0
2016-Aug-14 11:32N 33°45' W 118°14'0 0.0
2016-Aug-14 10:32N 33°45' W 118°14'0 0.0
2016-Aug-14 09:32N 33°45' W 118°14'0 0.0
2016-Aug-14 08:32N 33°45' W 118°14'0 0.0
2016-Aug-14 07:32N 33°45' W 118°14'0 0.0
2016-Aug-14 06:32N 33°45' W 118°14'0 0.0
2016-Aug-14 04:32N 33°45' W 118°14'0 0.0
2016-Aug-14 03:32N 33°45' W 118°14'0 0.0
2016-Aug-14 02:32N 33°45' W 118°14'0 0.0
2016-Aug-14 01:32N 33°45' W 118°14'0 0.0
2016-Aug-14 00:32N 33°45' W 118°14'0 0.0
2016-Aug-13 23:32N 33°45' W 118°14'0 0.0
2016-Aug-13 22:32N 33°45' W 118°14'0 0.0
2016-Aug-13 21:32N 33°45' W 118°14'0 0.0
2016-Aug-13 20:32N 33°45' W 118°14'0 0.0
2016-Aug-13 19:32N 33°45' W 118°14'0 0.0
2016-Aug-13 18:32N 33°45' W 118°14'0 0.0
2016-Aug-13 17:32N 33°45' W 118°14'0 0.0
2016-Aug-13 16:32N 33°45' W 118°14'0 0.0
2016-Aug-13 15:32N 33°45' W 118°14'0 0.0
2016-Aug-13 14:32N 33°45' W 118°14'0 0.0
2016-Aug-13 13:32N 33°45' W 118°14'0 0.0
2016-Aug-13 12:32N 33°45' W 118°14'0 0.0
2016-Aug-13 11:32N 33°45' W 118°14'0 0.0
2016-Aug-13 10:32N 33°45' W 118°14'0 0.0
2016-Aug-13 09:32N 33°45' W 118°14'0 0.0
2016-Aug-13 08:32N 33°45' W 118°14'0 0.0
2016-Aug-13 07:32N 33°45' W 118°14'0 0.0
2016-Aug-13 06:32N 33°45' W 118°14'0 0.0
2016-Aug-13 05:32N 33°45' W 118°14'0 0.0
2016-Aug-13 04:32N 33°45' W 118°14'0 0.0
2016-Aug-13 03:32N 33°45' W 118°14'0 0.0
2016-Aug-13 02:32N 33°45' W 118°14'0 0.0
2016-Aug-13 01:32N 33°45' W 118°14'0 0.0
2016-Aug-13 00:32N 33°45' W 118°14'0 0.0
2016-Aug-12 23:32N 33°45' W 118°14'0 0.0
2016-Aug-12 22:32N 33°45' W 118°14'0 0.0
2016-Aug-12 21:32N 33°45' W 118°14'0 0.0
2016-Aug-12 20:32N 33°45' W 118°14'0 0.0
2016-Aug-12 19:32N 33°45' W 118°14'0 0.0
2016-Aug-12 18:32N 33°45' W 118°14'0 0.0
2016-Aug-12 17:32N 33°45' W 118°14'0 0.0
2016-Aug-12 16:32N 33°45' W 118°14'0 0.0
2016-Aug-12 15:32N 33°45' W 118°14'0 0.0
2016-Aug-12 14:29N 33°45' W 118°14'0 0.0
2016-Aug-12 13:32N 33°45' W 118°14'0 0.0
2016-Aug-12 12:32N 33°45' W 118°14'0 0.0
2016-Aug-12 11:32N 33°45' W 118°14'0 0.0
2016-Aug-12 10:32N 33°45' W 118°14'0 0.0
2016-Aug-12 09:32N 33°45' W 118°14'0 0.0
2016-Aug-12 08:32N 33°45' W 118°14'0 0.0
2016-Aug-12 07:32N 33°45' W 118°14'0 0.0
2016-Aug-12 06:32N 33°45' W 118°14'0 0.0
2016-Aug-12 05:29N 33°45' W 118°14'0 0.0
2016-Aug-12 04:32N 33°45' W 118°14'0 0.0
2016-Aug-12 03:32N 33°45' W 118°14'0 0.0
2016-Aug-12 02:32N 33°45' W 118°14'0 0.0
2016-Aug-12 01:32N 33°45' W 118°14'0 0.0
2016-Aug-12 00:32N 33°45' W 118°14'0 0.0
2016-Aug-11 23:32N 33°45' W 118°14'0 0.0
2016-Aug-11 22:32N 33°45' W 118°14'0 0.0
2016-Aug-11 21:32N 33°45' W 118°14'0 0.0
2016-Aug-11 20:32N 33°45' W 118°14'0 0.0
2016-Aug-11 19:29N 33°45' W 118°14'0 0.0
2016-Aug-11 17:20N 33°45' W 118°14'0 0.0
2016-Aug-11 14:17N 33°45' W 118°14'0 0.0
2016-Aug-11 13:32N 33°45' W 118°14'0 0.0
2016-Aug-11 12:32N 33°45' W 118°14'0 0.0
2016-Aug-11 11:32N 33°45' W 118°14'11 3.6
2016-Aug-11 08:33N 33°37' W 118°23'1211.4
2016-Aug-11 07:32N 33°43' W 118°35'1111.6
2016-Aug-11 06:33N 33°49' W 118°47'1514.7
2016-Aug-11 05:34N 33°56' W 119°02'1615.8
2016-Aug-11 04:34N 34°03' W 119°19'1716.6
2016-Aug-11 03:34N 34°07' W 119°38'1716.9
2016-Aug-11 02:33N 34°12' W 119°58'2116.3
2016-Aug-11 01:17N 34°18' W 120°22'4114.9
2016-Aug-10 22:33N 34°33' W 121°08'1817.9
2016-Aug-10 21:33N 34°43' W 121°26'1817.9
2016-Aug-10 20:33N 34°53' W 121°45'1818.1
2016-Aug-10 19:33N 35°03' W 122°03'1918.3
2016-Aug-10 18:31N 35°13' W 122°22'1818.2
2016-Aug-10 17:33N 35°23' W 122°40'1717.6
2016-Aug-10 16:33N 35°33' W 122°58'1817.8
2016-Aug-10 15:33N 35°42' W 123°17'9118.2
2016-Aug-10 10:33N 36°30' W 124°52'2018.2
2016-Aug-10 09:26N 36°41' W 125°13'1617.9
2016-Aug-10 08:33N 36°49' W 125°30'  
Track history (hours):
 
Tides and Currents Weather Stations Pressure Air Temp Water Temp Dewpoint Dewpoint Depression Visibility Wind Speed Wind Dir Waves Ship Positions

Grete Maersk

Last reported at 2016-Aug-19 06:31 UTC. Time now 2016-Aug-31 14:19 UTC.
Position N 38°20' W 127°05'.
Warning: this ship's position is 12 days out of date.

MMSI: 218824136.

Date/timePositionNaut miles runAvg speedWind from/ knotsBaromVisibWave heightAir tempDewpointWater temp
2016-Aug-19 06:31N 38°20' W 127°05'8814.7
2016-Aug-19 00:33N 38°15' W 125°13'1514.7
2016-Aug-18 23:32N 38°15' W 124°54'1414.4
2016-Aug-18 22:33N 38°14' W 124°36'1414.3
2016-Aug-18 21:33N 38°13' W 124°18'1414.4
2016-Aug-18 20:34N 38°12' W 124°00'1514.8
2016-Aug-18 19:33N 38°11' W 123°41'1413.9
2016-Aug-18 18:33N 38°10' W 123°24'9 9.1
2016-Aug-18 17:33N 38°04' W 123°15'10 9.5
2016-Aug-18 16:33N 37°58' W 123°06'10 9.6
2016-Aug-18 15:33N 37°53' W 122°55'10 9.8
2016-Aug-18 14:33N 37°48' W 122°45'1111.1
2016-Aug-18 13:33N 37°49' W 122°31'9 9.1
2016-Aug-18 12:33N 37°48' W 122°19'0 0.4
2016-Aug-18 11:31N 37°48' W 122°19'0 0.0
2016-Aug-18 10:31N 37°48' W 122°19'0 0.0
2016-Aug-18 09:31N 37°48' W 122°19'0 0.0
2016-Aug-18 08:28N 37°48' W 122°19'0 0.0
2016-Aug-18 07:31N 37°48' W 122°19'0 0.0
2016-Aug-18 06:31N 37°48' W 122°19'0 0.0
2016-Aug-18 05:31N 37°48' W 122°19'0 0.0
2016-Aug-18 04:31N 37°48' W 122°19'0 0.0
2016-Aug-18 03:31N 37°48' W 122°19'0 0.0
2016-Aug-18 02:31N 37°48' W 122°19'0 0.0
2016-Aug-18 01:31N 37°48' W 122°19'0 0.0
2016-Aug-18 00:31N 37°48' W 122°19'0 0.0
2016-Aug-17 23:31N 37°48' W 122°19'0 0.0
2016-Aug-17 22:31N 37°48' W 122°19'1 1.1
2016-Aug-17 21:33N 37°48' W 122°17'4 3.8
2016-Aug-17 20:33N 37°47' W 122°22'1 1.3
2016-Aug-17 19:32N 37°46' W 122°21'0 0.0
2016-Aug-17 18:32N 37°46' W 122°21'0 0.0
2016-Aug-17 17:32N 37°46' W 122°21'0 0.0
2016-Aug-17 16:32N 37°46' W 122°21'0 0.0
2016-Aug-17 15:32N 37°46' W 122°21'0 0.1
2016-Aug-17 14:32N 37°46' W 122°21'0 0.3
2016-Aug-17 13:32N 37°46' W 122°21'0 0.0
2016-Aug-17 12:29N 37°46' W 122°22'0 0.0
2016-Aug-17 11:32N 37°46' W 122°22'0 0.0
2016-Aug-17 10:32N 37°46' W 122°22'0 0.0
2016-Aug-17 09:32N 37°46' W 122°22'0 0.0
2016-Aug-17 08:32N 37°46' W 122°21'0 0.2
2016-Aug-17 07:33N 37°46' W 122°21'0 0.3
2016-Aug-17 06:32N 37°46' W 122°21'0 0.0
2016-Aug-17 05:32N 37°46' W 122°21'0 0.0
2016-Aug-17 04:29N 37°46' W 122°21'0 0.0
2016-Aug-17 03:32N 37°46' W 122°21'0 0.1
2016-Aug-17 02:32N 37°46' W 122°21'0 0.3
2016-Aug-17 01:33N 37°46' W 122°21'8 7.5
2016-Aug-17 00:33N 37°48' W 122°31'10 9.6
2016-Aug-16 23:33N 37°42' W 122°40'10 9.6
2016-Aug-16 22:33N 37°32' W 122°40'10 9.6
2016-Aug-16 21:33N 37°23' W 122°40'8 7.7
2016-Aug-16 20:33N 37°15' W 122°39'0 0.1
2016-Aug-16 19:33N 37°15' W 122°39'2 1.8
2016-Aug-16 18:33N 37°13' W 122°39'1010.0
2016-Aug-16 17:33N 37°04' W 122°35'1515.3
2016-Aug-16 16:33N 36°50' W 122°28'1515.3
2016-Aug-16 15:33N 36°35' W 122°21'1615.5
2016-Aug-16 14:33N 36°21' W 122°13'6015.1
2016-Aug-16 10:33N 35°25' W 121°45'1514.9
2016-Aug-16 09:33N 35°11' W 121°37'1614.9
2016-Aug-16 08:28N 34°57' W 121°28'1112.4
2016-Aug-16 07:33N 34°49' W 121°19'5 1.6
2016-Aug-16 04:11N 34°51' W 121°25'1 1.6
2016-Aug-16 03:24N 34°51' W 121°26'1 1.0
2016-Aug-16 02:33N 34°50' W 121°26'3 2.6
2016-Aug-16 01:33N 34°47' W 121°26'1614.1
2016-Aug-16 00:25N 34°36' W 121°12'1314.5
2016-Aug-15 23:33N 34°30' W 120°59'4513.9
2016-Aug-15 20:19N 34°16' W 120°07'1114.5
2016-Aug-15 19:33N 34°13' W 119°54'1414.5
2016-Aug-15 18:33N 34°09' W 119°37'1514.6
2016-Aug-15 17:33N 34°06' W 119°20'1514.7
2016-Aug-15 16:33N 33°59' W 119°04'1514.6
2016-Aug-15 15:33N 33°52' W 118°49'1212.1
2016-Aug-15 14:33N 33°46' W 118°36'1111.2
2016-Aug-15 13:33N 33°40' W 118°24'9 9.1
2016-Aug-15 12:33N 33°39' W 118°13'6 6.0
2016-Aug-15 11:33N 33°45' W 118°14'0 0.4
2016-Aug-15 10:33N 33°45' W 118°14'0 0.0
2016-Aug-15 09:33N 33°45' W 118°14'0 0.0
2016-Aug-15 08:33N 33°45' W 118°14'0 0.0
2016-Aug-15 07:33N 33°45' W 118°14'0 0.0
2016-Aug-15 06:33N 33°45' W 118°14'0 0.0
2016-Aug-15 04:33N 33°45' W 118°14'0 0.0
2016-Aug-15 03:33N 33°45' W 118°14'0 0.0
2016-Aug-15 02:33N 33°45' W 118°14'0 0.0
2016-Aug-15 01:33N 33°45' W 118°14'0 0.0
2016-Aug-15 00:33N 33°45' W 118°14'0 0.0
2016-Aug-14 23:33N 33°45' W 118°14'0 0.0
2016-Aug-14 22:33N 33°45' W 118°14'0 0.0
2016-Aug-14 21:33N 33°45' W 118°14'0 0.0
2016-Aug-14 20:33N 33°45' W 118°14'0 0.0
2016-Aug-14 19:30N 33°45' W 118°14'0 0.0
2016-Aug-14 18:33N 33°45' W 118°14'0 0.0
2016-Aug-14 17:33N 33°45' W 118°14'0 0.0
2016-Aug-14 16:33N 33°45' W 118°14'0 0.0
2016-Aug-14 15:32N 33°45' W 118°14'0 0.0
2016-Aug-14 14:32N 33°45' W 118°14'0 0.0
2016-Aug-14 13:32N 33°45' W 118°14'0 0.0
2016-Aug-14 12:32N 33°45' W 118°14'0 0.0
2016-Aug-14 11:32N 33°45' W 118°14'0 0.0
2016-Aug-14 10:32N 33°45' W 118°14'0 0.0
2016-Aug-14 09:32N 33°45' W 118°14'0 0.0
2016-Aug-14 08:32N 33°45' W 118°14'0 0.0
2016-Aug-14 07:32N 33°45' W 118°14'0 0.0
2016-Aug-14 06:32N 33°45' W 118°14'0 0.0
2016-Aug-14 04:32N 33°45' W 118°14'0 0.0
2016-Aug-14 03:32N 33°45' W 118°14'0 0.0
2016-Aug-14 02:32N 33°45' W 118°14'0 0.0
2016-Aug-14 01:32N 33°45' W 118°14'0 0.0
2016-Aug-14 00:32N 33°45' W 118°14'0 0.0
2016-Aug-13 23:32N 33°45' W 118°14'0 0.0
2016-Aug-13 22:32N 33°45' W 118°14'0 0.0
2016-Aug-13 21:32N 33°45' W 118°14'0 0.0
2016-Aug-13 20:32N 33°45' W 118°14'0 0.0
2016-Aug-13 19:32N 33°45' W 118°14'0 0.0
2016-Aug-13 18:32N 33°45' W 118°14'0 0.0
2016-Aug-13 17:32N 33°45' W 118°14'0 0.0
2016-Aug-13 16:32N 33°45' W 118°14'0 0.0
2016-Aug-13 15:32N 33°45' W 118°14'0 0.0
2016-Aug-13 14:32N 33°45' W 118°14'0 0.0
2016-Aug-13 13:32N 33°45' W 118°14'0 0.0
2016-Aug-13 12:32N 33°45' W 118°14'0 0.0
2016-Aug-13 11:32N 33°45' W 118°14'0 0.0
2016-Aug-13 10:32N 33°45' W 118°14'0 0.0
2016-Aug-13 09:32N 33°45' W 118°14'0 0.0
2016-Aug-13 08:32N 33°45' W 118°14'0 0.0
2016-Aug-13 07:32N 33°45' W 118°14'0 0.0
2016-Aug-13 06:32N 33°45' W 118°14'0 0.0
2016-Aug-13 05:32N 33°45' W 118°14'0 0.0
2016-Aug-13 04:32N 33°45' W 118°14'0 0.0
2016-Aug-13 03:32N 33°45' W 118°14'0 0.0
2016-Aug-13 02:32N 33°45' W 118°14'0 0.0
2016-Aug-13 01:32N 33°45' W 118°14'0 0.0
2016-Aug-13 00:32N 33°45' W 118°14'0 0.0
2016-Aug-12 23:32N 33°45' W 118°14'0 0.0
2016-Aug-12 22:32N 33°45' W 118°14'0 0.0
2016-Aug-12 21:32N 33°45' W 118°14'0 0.0
2016-Aug-12 20:32N 33°45' W 118°14'0 0.0
2016-Aug-12 19:32N 33°45' W 118°14'0 0.0
2016-Aug-12 18:32N 33°45' W 118°14'0 0.0
2016-Aug-12 17:32N 33°45' W 118°14'0 0.0
2016-Aug-12 16:32N 33°45' W 118°14'0 0.0
2016-Aug-12 15:32N 33°45' W 118°14'0 0.0
2016-Aug-12 14:29N 33°45' W 118°14'0 0.0
2016-Aug-12 13:32N 33°45' W 118°14'0 0.0
2016-Aug-12 12:32N 33°45' W 118°14'0 0.0
2016-Aug-12 11:32N 33°45' W 118°14'0 0.0
2016-Aug-12 10:32N 33°45' W 118°14'0 0.0
2016-Aug-12 09:32N 33°45' W 118°14'0 0.0
2016-Aug-12 08:32N 33°45' W 118°14'0 0.0
2016-Aug-12 07:32N 33°45' W 118°14'0 0.0
2016-Aug-12 06:32N 33°45' W 118°14'0 0.0
2016-Aug-12 05:29N 33°45' W 118°14'0 0.0
2016-Aug-12 04:32N 33°45' W 118°14'0 0.0
2016-Aug-12 03:32N 33°45' W 118°14'0 0.0
2016-Aug-12 02:32N 33°45' W 118°14'0 0.0
2016-Aug-12 01:32N 33°45' W 118°14'0 0.0
2016-Aug-12 00:32N 33°45' W 118°14'0 0.0
2016-Aug-11 23:32N 33°45' W 118°14'0 0.0
2016-Aug-11 22:32N 33°45' W 118°14'0 0.0
2016-Aug-11 21:32N 33°45' W 118°14'0 0.0
2016-Aug-11 20:32N 33°45' W 118°14'0 0.0
2016-Aug-11 19:29N 33°45' W 118°14'0 0.0
2016-Aug-11 17:20N 33°45' W 118°14'0 0.0
2016-Aug-11 14:17N 33°45' W 118°14'0 0.0
2016-Aug-11 13:32N 33°45' W 118°14'0 0.0
2016-Aug-11 12:32N 33°45' W 118°14'0 0.0
2016-Aug-11 11:32N 33°45' W 118°14'11 3.6
2016-Aug-11 08:33N 33°37' W 118°23'1211.4
2016-Aug-11 07:32N 33°43' W 118°35'1111.6
2016-Aug-11 06:33N 33°49' W 118°47'1514.7
2016-Aug-11 05:34N 33°56' W 119°02'1615.8
2016-Aug-11 04:34N 34°03' W 119°19'1716.6
2016-Aug-11 03:34N 34°07' W 119°38'1716.9
2016-Aug-11 02:33N 34°12' W 119°58'2116.3
2016-Aug-11 01:17N 34°18' W 120°22'4114.9
2016-Aug-10 22:33N 34°33' W 121°08'1817.9
2016-Aug-10 21:33N 34°43' W 121°26'1817.9
2016-Aug-10 20:33N 34°53' W 121°45'1818.1
2016-Aug-10 19:33N 35°03' W 122°03'1918.3
2016-Aug-10 18:31N 35°13' W 122°22'1818.2
2016-Aug-10 17:33N 35°23' W 122°40'1717.6
2016-Aug-10 16:33N 35°33' W 122°58'1817.8
2016-Aug-10 15:33N 35°42' W 123°17'9118.2
2016-Aug-10 10:33N 36°30' W 124°52'2018.2
2016-Aug-10 09:26N 36°41' W 125°13'1617.9
2016-Aug-10 08:33N 36°49' W 125°30'  

Dump ship's entire track history